sensor_id;sensor_type;location;lat;lon;timestamp;P1;durP1;ratioP1;P2;durP2;ratioP2
49450;SDS011;35336;48.400;10.886;2024-02-14T00:00:16;13.77;;;8.77;;
49450;SDS011;35336;48.400;10.886;2024-02-14T00:00:31;13.95;;;9.27;;
49450;SDS011;35336;48.400;10.886;2024-02-14T00:00:49;14.93;;;9.63;;
49450;SDS011;35336;48.400;10.886;2024-02-14T00:01:04;14.60;;;9.20;;
49450;SDS011;35336;48.400;10.886;2024-02-14T00:01:19;15.47;;;9.37;;
49450;SDS011;35336;48.400;10.886;2024-02-14T00:01:35;14.80;;;9.50;;
49450;SDS011;35336;48.400;10.886;2024-02-14T00:01:50;13.00;;;9.07;;
49450;SDS011;35336;48.400;10.886;2024-02-14T00:02:05;12.93;;;8.83;;
49450;SDS011;35336;48.400;10.886;2024-02-14T00:02:23;13.63;;;9.00;;
49450;SDS011;35336;48.400;10.886;2024-02-14T00:02:43;14.20;;;9.23;;
49450;SDS011;35336;48.400;10.886;2024-02-14T00:03:01;14.55;;;9.00;;
49450;SDS011;35336;48.400;10.886;2024-02-14T00:03:17;13.90;;;8.68;;
49450;SDS011;35336;48.400;10.886;2024-02-14T00:03:32;15.63;;;9.17;;
49450;SDS011;35336;48.400;10.886;2024-02-14T00:03:47;15.17;;;9.13;;
49450;SDS011;35336;48.400;10.886;2024-02-14T00:04:03;17.00;;;9.20;;
49450;SDS011;35336;48.400;10.886;2024-02-14T00:04:18;16.30;;;8.95;;
49450;SDS011;35336;48.400;10.886;2024-02-14T00:04:34;14.07;;;8.63;;
49450;SDS011;35336;48.400;10.886;2024-02-14T00:04:49;15.68;;;9.18;;
49450;SDS011;35336;48.400;10.886;2024-02-14T00:05:04;17.47;;;9.90;;
49450;SDS011;35336;48.400;10.886;2024-02-14T00:05:20;17.00;;;10.10;;
49450;SDS011;35336;48.400;10.886;2024-02-14T00:05:37;15.95;;;10.00;;
49450;SDS011;35336;48.400;10.886;2024-02-14T00:05:52;15.52;;;9.82;;
49450;SDS011;35336;48.400;10.886;2024-02-14T00:06:08;14.93;;;9.77;;
49450;SDS011;35336;48.400;10.886;2024-02-14T00:06:23;15.17;;;9.97;;
49450;SDS011;35336;48.400;10.886;2024-02-14T00:06:38;15.88;;;9.88;;
49450;SDS011;35336;48.400;10.886;2024-02-14T00:06:53;17.67;;;9.50;;
49450;SDS011;35336;48.400;10.886;2024-02-14T00:07:09;17.60;;;9.40;;
49450;SDS011;35336;48.400;10.886;2024-02-14T00:07:24;16.07;;;10.10;;
49450;SDS011;35336;48.400;10.886;2024-02-14T00:07:39;15.02;;;10.45;;
49450;SDS011;35336;48.400;10.886;2024-02-14T00:07:55;13.98;;;10.05;;
49450;SDS011;35336;48.400;10.886;2024-02-14T00:08:10;15.60;;;10.37;;
49450;SDS011;35336;48.400;10.886;2024-02-14T00:08:25;15.93;;;10.00;;
49450;SDS011;35336;48.400;10.886;2024-02-14T00:08:40;16.07;;;9.73;;
49450;SDS011;35336;48.400;10.886;2024-02-14T00:08:56;15.90;;;10.38;;
49450;SDS011;35336;48.400;10.886;2024-02-14T00:09:11;15.53;;;10.37;;
49450;SDS011;35336;48.400;10.886;2024-02-14T00:09:26;15.50;;;10.27;;
49450;SDS011;35336;48.400;10.886;2024-02-14T00:09:41;15.53;;;10.50;;
49450;SDS011;35336;48.400;10.886;2024-02-14T00:09:57;15.37;;;10.40;;
49450;SDS011;35336;48.400;10.886;2024-02-14T00:10:12;14.25;;;9.90;;
49450;SDS011;35336;48.400;10.886;2024-02-14T00:10:27;13.07;;;9.57;;
49450;SDS011;35336;48.400;10.886;2024-02-14T00:10:42;13.13;;;9.67;;
49450;SDS011;35336;48.400;10.886;2024-02-14T00:10:58;13.77;;;9.10;;
49450;SDS011;35336;48.400;10.886;2024-02-14T00:11:13;14.73;;;8.98;;
49450;SDS011;35336;48.400;10.886;2024-02-14T00:11:28;13.97;;;9.30;;
49450;SDS011;35336;48.400;10.886;2024-02-14T00:11:43;13.27;;;9.67;;
49450;SDS011;35336;48.400;10.886;2024-02-14T00:11:59;14.73;;;10.03;;
49450;SDS011;35336;48.400;10.886;2024-02-14T00:12:14;17.27;;;9.90;;
49450;SDS011;35336;48.400;10.886;2024-02-14T00:12:29;16.55;;;10.13;;
49450;SDS011;35336;48.400;10.886;2024-02-14T00:12:45;15.10;;;10.27;;
49450;SDS011;35336;48.400;10.886;2024-02-14T00:13:00;15.70;;;9.97;;
49450;SDS011;35336;48.400;10.886;2024-02-14T00:13:17;14.97;;;10.03;;
49450;SDS011;35336;48.400;10.886;2024-02-14T00:13:35;17.92;;;10.52;;
49450;SDS011;35336;48.400;10.886;2024-02-14T00:13:50;17.60;;;10.87;;
49450;SDS011;35336;48.400;10.886;2024-02-14T00:14:06;15.73;;;10.85;;
49450;SDS011;35336;48.400;10.886;2024-02-14T00:14:21;14.77;;;10.37;;
49450;SDS011;35336;48.400;10.886;2024-02-14T00:14:36;12.93;;;10.10;;
49450;SDS011;35336;48.400;10.886;2024-02-14T00:14:52;14.73;;;10.07;;
49450;SDS011;35336;48.400;10.886;2024-02-14T00:15:09;16.30;;;9.95;;
49450;SDS011;35336;48.400;10.886;2024-02-14T00:15:24;17.30;;;10.47;;
49450;SDS011;35336;48.400;10.886;2024-02-14T00:15:40;16.13;;;10.30;;
49450;SDS011;35336;48.400;10.886;2024-02-14T00:15:55;14.70;;;10.13;;
49450;SDS011;35336;48.400;10.886;2024-02-14T00:16:10;15.80;;;10.73;;
49450;SDS011;35336;48.400;10.886;2024-02-14T00:16:28;15.50;;;10.73;;
49450;SDS011;35336;48.400;10.886;2024-02-14T00:16:43;15.15;;;10.30;;
49450;SDS011;35336;48.400;10.886;2024-02-14T00:16:58;16.27;;;10.77;;
49450;SDS011;35336;48.400;10.886;2024-02-14T00:17:16;15.40;;;10.70;;
49450;SDS011;35336;48.400;10.886;2024-02-14T00:17:31;13.45;;;10.50;;
49450;SDS011;35336;48.400;10.886;2024-02-14T00:17:46;14.25;;;10.63;;
49450;SDS011;35336;48.400;10.886;2024-02-14T00:18:02;15.27;;;10.30;;
49450;SDS011;35336;48.400;10.886;2024-02-14T00:18:17;15.93;;;10.27;;
49450;SDS011;35336;48.400;10.886;2024-02-14T00:18:32;14.93;;;10.63;;
49450;SDS011;35336;48.400;10.886;2024-02-14T00:18:48;14.47;;;10.13;;
49450;SDS011;35336;48.400;10.886;2024-02-14T00:19:03;14.70;;;9.90;;
49450;SDS011;35336;48.400;10.886;2024-02-14T00:19:18;15.07;;;10.13;;
49450;SDS011;35336;48.400;10.886;2024-02-14T00:19:33;16.23;;;10.03;;
49450;SDS011;35336;48.400;10.886;2024-02-14T00:19:49;15.00;;;9.55;;
49450;SDS011;35336;48.400;10.886;2024-02-14T00:20:04;14.57;;;9.90;;
49450;SDS011;35336;48.400;10.886;2024-02-14T00:20:20;15.07;;;10.20;;
49450;SDS011;35336;48.400;10.886;2024-02-14T00:20:38;17.58;;;10.15;;
49450;SDS011;35336;48.400;10.886;2024-02-14T00:20:53;15.98;;;10.25;;
49450;SDS011;35336;48.400;10.886;2024-02-14T00:21:09;13.43;;;9.77;;
49450;SDS011;35336;48.400;10.886;2024-02-14T00:21:24;14.23;;;9.63;;
49450;SDS011;35336;48.400;10.886;2024-02-14T00:21:39;14.48;;;9.88;;
49450;SDS011;35336;48.400;10.886;2024-02-14T00:21:54;15.53;;;9.90;;
49450;SDS011;35336;48.400;10.886;2024-02-14T00:22:10;14.70;;;9.67;;
49450;SDS011;35336;48.400;10.886;2024-02-14T00:22:27;13.60;;;9.50;;
49450;SDS011;35336;48.400;10.886;2024-02-14T00:22:42;15.48;;;9.45;;
49450;SDS011;35336;48.400;10.886;2024-02-14T00:22:58;16.33;;;9.47;;
49450;SDS011;35336;48.400;10.886;2024-02-14T00:23:13;14.57;;;9.53;;
49450;SDS011;35336;48.400;10.886;2024-02-14T00:23:28;12.83;;;9.50;;
49450;SDS011;35336;48.400;10.886;2024-02-14T00:23:43;12.88;;;9.45;;
49450;SDS011;35336;48.400;10.886;2024-02-14T00:23:59;14.50;;;9.10;;
49450;SDS011;35336;48.400;10.886;2024-02-14T00:24:15;15.63;;;9.07;;
49450;SDS011;35336;48.400;10.886;2024-02-14T00:24:30;14.47;;;9.57;;
49450;SDS011;35336;48.400;10.886;2024-02-14T00:24:46;14.80;;;9.73;;
49450;SDS011;35336;48.400;10.886;2024-02-14T00:25:01;16.50;;;9.90;;
49450;SDS011;35336;48.400;10.886;2024-02-14T00:25:16;15.77;;;9.37;;
49450;SDS011;35336;48.400;10.886;2024-02-14T00:25:34;13.60;;;8.90;;
49450;SDS011;35336;48.400;10.886;2024-02-14T00:25:49;12.52;;;8.93;;
49450;SDS011;35336;48.400;10.886;2024-02-14T00:26:04;14.37;;;8.90;;
49450;SDS011;35336;48.400;10.886;2024-02-14T00:26:20;14.87;;;8.93;;
49450;SDS011;35336;48.400;10.886;2024-02-14T00:26:35;12.97;;;8.73;;
49450;SDS011;35336;48.400;10.886;2024-02-14T00:26:52;12.50;;;8.80;;
49450;SDS011;35336;48.400;10.886;2024-02-14T00:27:07;13.57;;;9.20;;
49450;SDS011;35336;48.400;10.886;2024-02-14T00:27:23;13.90;;;9.17;;
49450;SDS011;35336;48.400;10.886;2024-02-14T00:27:38;12.65;;;8.68;;
49450;SDS011;35336;48.400;10.886;2024-02-14T00:27:53;11.90;;;8.40;;
49450;SDS011;35336;48.400;10.886;2024-02-14T00:28:08;13.43;;;8.57;;
49450;SDS011;35336;48.400;10.886;2024-02-14T00:28:24;12.87;;;8.87;;
49450;SDS011;35336;48.400;10.886;2024-02-14T00:28:39;12.00;;;8.80;;
49450;SDS011;35336;48.400;10.886;2024-02-14T00:28:54;12.57;;;8.50;;
49450;SDS011;35336;48.400;10.886;2024-02-14T00:29:10;13.80;;;8.97;;
49450;SDS011;35336;48.400;10.886;2024-02-14T00:29:25;14.73;;;9.53;;
49450;SDS011;35336;48.400;10.886;2024-02-14T00:29:40;13.73;;;9.17;;
49450;SDS011;35336;48.400;10.886;2024-02-14T00:29:56;12.82;;;8.93;;
49450;SDS011;35336;48.400;10.886;2024-02-14T00:30:11;12.20;;;8.63;;
49450;SDS011;35336;48.400;10.886;2024-02-14T00:30:26;12.87;;;8.90;;
49450;SDS011;35336;48.400;10.886;2024-02-14T00:30:42;15.00;;;9.32;;
49450;SDS011;35336;48.400;10.886;2024-02-14T00:30:57;13.60;;;8.70;;
49450;SDS011;35336;48.400;10.886;2024-02-14T00:31:13;14.98;;;8.40;;
49450;SDS011;35336;48.400;10.886;2024-02-14T00:31:28;16.60;;;8.57;;
49450;SDS011;35336;48.400;10.886;2024-02-14T00:31:45;13.30;;;8.50;;
49450;SDS011;35336;48.400;10.886;2024-02-14T00:32:01;12.00;;;8.18;;
49450;SDS011;35336;48.400;10.886;2024-02-14T00:32:16;11.15;;;7.93;;
49450;SDS011;35336;48.400;10.886;2024-02-14T00:32:34;12.70;;;8.10;;
49450;SDS011;35336;48.400;10.886;2024-02-14T00:32:49;14.00;;;8.35;;
49450;SDS011;35336;48.400;10.886;2024-02-14T00:33:05;12.23;;;8.13;;
49450;SDS011;35336;48.400;10.886;2024-02-14T00:33:22;13.03;;;8.73;;
49450;SDS011;35336;48.400;10.886;2024-02-14T00:33:37;13.02;;;8.70;;
49450;SDS011;35336;48.400;10.886;2024-02-14T00:33:53;12.30;;;8.33;;
49450;SDS011;35336;48.400;10.886;2024-02-14T00:34:08;12.20;;;8.93;;
49450;SDS011;35336;48.400;10.886;2024-02-14T00:34:23;12.00;;;8.90;;
49450;SDS011;35336;48.400;10.886;2024-02-14T00:34:38;11.57;;;8.23;;
49450;SDS011;35336;48.400;10.886;2024-02-14T00:34:54;11.70;;;8.05;;
49450;SDS011;35336;48.400;10.886;2024-02-14T00:35:11;11.25;;;8.20;;
49450;SDS011;35336;48.400;10.886;2024-02-14T00:35:26;11.15;;;8.25;;
49450;SDS011;35336;48.400;10.886;2024-02-14T00:35:42;11.50;;;8.33;;
49450;SDS011;35336;48.400;10.886;2024-02-14T00:35:57;12.27;;;8.27;;
49450;SDS011;35336;48.400;10.886;2024-02-14T00:36:12;13.23;;;8.10;;
49450;SDS011;35336;48.400;10.886;2024-02-14T00:36:28;13.00;;;7.90;;
49450;SDS011;35336;48.400;10.886;2024-02-14T00:36:43;11.57;;;7.80;;
49450;SDS011;35336;48.400;10.886;2024-02-14T00:36:58;10.40;;;7.90;;
49450;SDS011;35336;48.400;10.886;2024-02-14T00:37:14;10.93;;;7.77;;
49450;SDS011;35336;48.400;10.886;2024-02-14T00:37:29;11.50;;;7.95;;
49450;SDS011;35336;48.400;10.886;2024-02-14T00:37:44;11.40;;;7.83;;
49450;SDS011;35336;48.400;10.886;2024-02-14T00:37:59;11.40;;;7.57;;
49450;SDS011;35336;48.400;10.886;2024-02-14T00:38:15;10.47;;;7.40;;
49450;SDS011;35336;48.400;10.886;2024-02-14T00:38:31;12.05;;;7.38;;
49450;SDS011;35336;48.400;10.886;2024-02-14T00:38:46;12.53;;;7.50;;
49450;SDS011;35336;48.400;10.886;2024-02-14T00:39:01;12.23;;;8.07;;
49450;SDS011;35336;48.400;10.886;2024-02-14T00:39:19;12.20;;;8.03;;
49450;SDS011;35336;48.400;10.886;2024-02-14T00:39:35;11.02;;;7.18;;
49450;SDS011;35336;48.400;10.886;2024-02-14T00:39:50;12.00;;;7.30;;
49450;SDS011;35336;48.400;10.886;2024-02-14T00:40:06;12.43;;;7.20;;
49450;SDS011;35336;48.400;10.886;2024-02-14T00:40:22;11.70;;;6.78;;
49450;SDS011;35336;48.400;10.886;2024-02-14T00:40:37;10.23;;;6.83;;
49450;SDS011;35336;48.400;10.886;2024-02-14T00:40:52;9.70;;;7.10;;
49450;SDS011;35336;48.400;10.886;2024-02-14T00:41:07;9.53;;;7.30;;
49450;SDS011;35336;48.400;10.886;2024-02-14T00:41:23;11.00;;;7.23;;
49450;SDS011;35336;48.400;10.886;2024-02-14T00:41:40;11.90;;;7.50;;
49450;SDS011;35336;48.400;10.886;2024-02-14T00:41:56;11.32;;;7.18;;
49450;SDS011;35336;48.400;10.886;2024-02-14T00:42:11;10.07;;;6.65;;
49450;SDS011;35336;48.400;10.886;2024-02-14T00:42:26;8.40;;;6.57;;
49450;SDS011;35336;48.400;10.886;2024-02-14T00:42:41;10.00;;;6.60;;
49450;SDS011;35336;48.400;10.886;2024-02-14T00:42:59;10.73;;;6.65;;
49450;SDS011;35336;48.400;10.886;2024-02-14T00:43:14;11.40;;;6.63;;
49450;SDS011;35336;48.400;10.886;2024-02-14T00:43:31;12.10;;;6.72;;
49450;SDS011;35336;48.400;10.886;2024-02-14T00:43:47;12.68;;;6.97;;
49450;SDS011;35336;48.400;10.886;2024-02-14T00:44:02;12.63;;;7.00;;
49450;SDS011;35336;48.400;10.886;2024-02-14T00:44:17;10.02;;;6.82;;
49450;SDS011;35336;48.400;10.886;2024-02-14T00:44:33;10.07;;;6.70;;
49450;SDS011;35336;48.400;10.886;2024-02-14T00:44:48;10.57;;;6.90;;
49450;SDS011;35336;48.400;10.886;2024-02-14T00:45:03;9.17;;;7.03;;
49450;SDS011;35336;48.400;10.886;2024-02-14T00:45:19;9.13;;;6.75;;
49450;SDS011;35336;48.400;10.886;2024-02-14T00:45:35;10.05;;;6.35;;
49450;SDS011;35336;48.400;10.886;2024-02-14T00:45:51;11.25;;;6.40;;
49450;SDS011;35336;48.400;10.886;2024-02-14T00:46:06;10.47;;;6.53;;
49450;SDS011;35336;48.400;10.886;2024-02-14T00:46:21;9.30;;;6.67;;
49450;SDS011;35336;48.400;10.886;2024-02-14T00:46:37;9.82;;;6.45;;
49450;SDS011;35336;48.400;10.886;2024-02-14T00:46:58;11.13;;;6.30;;
49450;SDS011;35336;48.400;10.886;2024-02-14T00:47:13;11.55;;;6.72;;
49450;SDS011;35336;48.400;10.886;2024-02-14T00:47:28;10.07;;;6.53;;
49450;SDS011;35336;48.400;10.886;2024-02-14T00:47:43;9.90;;;6.27;;
49450;SDS011;35336;48.400;10.886;2024-02-14T00:47:59;9.40;;;6.03;;
49450;SDS011;35336;48.400;10.886;2024-02-14T00:48:16;9.60;;;6.38;;
49450;SDS011;35336;48.400;10.886;2024-02-14T00:48:32;11.43;;;6.80;;
49450;SDS011;35336;48.400;10.886;2024-02-14T00:48:47;11.35;;;6.38;;
49450;SDS011;35336;48.400;10.886;2024-02-14T00:49:02;9.15;;;6.15;;
49450;SDS011;35336;48.400;10.886;2024-02-14T00:49:20;8.97;;;5.90;;
49450;SDS011;35336;48.400;10.886;2024-02-14T00:49:36;10.70;;;6.30;;
49450;SDS011;35336;48.400;10.886;2024-02-14T00:49:51;10.77;;;6.40;;
49450;SDS011;35336;48.400;10.886;2024-02-14T00:50:06;9.43;;;6.10;;
49450;SDS011;35336;48.400;10.886;2024-02-14T00:50:22;8.85;;;5.70;;
49450;SDS011;35336;48.400;10.886;2024-02-14T00:50:37;7.90;;;5.70;;
49450;SDS011;35336;48.400;10.886;2024-02-14T00:50:52;7.63;;;6.10;;
49450;SDS011;35336;48.400;10.886;2024-02-14T00:51:07;8.68;;;6.10;;
49450;SDS011;35336;48.400;10.886;2024-02-14T00:51:23;8.70;;;6.10;;
49450;SDS011;35336;48.400;10.886;2024-02-14T00:51:41;7.20;;;5.85;;
49450;SDS011;35336;48.400;10.886;2024-02-14T00:51:58;7.65;;;5.93;;
49450;SDS011;35336;48.400;10.886;2024-02-14T00:52:13;7.90;;;6.00;;
49450;SDS011;35336;48.400;10.886;2024-02-14T00:52:31;9.38;;;5.80;;
49450;SDS011;35336;48.400;10.886;2024-02-14T00:52:46;10.30;;;6.07;;
49450;SDS011;35336;48.400;10.886;2024-02-14T00:53:01;10.00;;;6.40;;
49450;SDS011;35336;48.400;10.886;2024-02-14T00:53:19;10.10;;;6.27;;
49450;SDS011;35336;48.400;10.886;2024-02-14T00:53:34;10.45;;;6.28;;
49450;SDS011;35336;48.400;10.886;2024-02-14T00:53:49;9.43;;;6.20;;
49450;SDS011;35336;48.400;10.886;2024-02-14T00:54:05;10.73;;;6.30;;
49450;SDS011;35336;48.400;10.886;2024-02-14T00:54:20;12.65;;;6.28;;
49450;SDS011;35336;48.400;10.886;2024-02-14T00:54:38;10.40;;;6.25;;
49450;SDS011;35336;48.400;10.886;2024-02-14T00:54:53;8.38;;;6.18;;
49450;SDS011;35336;48.400;10.886;2024-02-14T00:55:08;8.73;;;5.80;;
49450;SDS011;35336;48.400;10.886;2024-02-14T00:55:24;11.30;;;5.60;;
49450;SDS011;35336;48.400;10.886;2024-02-14T00:55:39;12.73;;;6.10;;
49450;SDS011;35336;48.400;10.886;2024-02-14T00:55:54;10.93;;;6.28;;
49450;SDS011;35336;48.400;10.886;2024-02-14T00:56:12;9.57;;;5.80;;
49450;SDS011;35336;48.400;10.886;2024-02-14T00:56:27;9.45;;;5.70;;
49450;SDS011;35336;48.400;10.886;2024-02-14T00:56:45;8.88;;;5.70;;
49450;SDS011;35336;48.400;10.886;2024-02-14T00:57:00;9.40;;;5.80;;
49450;SDS011;35336;48.400;10.886;2024-02-14T00:57:16;9.50;;;5.80;;
49450;SDS011;35336;48.400;10.886;2024-02-14T00:57:31;9.67;;;6.13;;
49450;SDS011;35336;48.400;10.886;2024-02-14T00:57:46;10.80;;;6.37;;
49450;SDS011;35336;48.400;10.886;2024-02-14T00:58:01;9.87;;;6.03;;
49450;SDS011;35336;48.400;10.886;2024-02-14T00:58:17;10.48;;;6.47;;
49450;SDS011;35336;48.400;10.886;2024-02-14T00:58:34;10.07;;;6.28;;
49450;SDS011;35336;48.400;10.886;2024-02-14T00:58:50;8.73;;;5.77;;
49450;SDS011;35336;48.400;10.886;2024-02-14T00:59:10;10.55;;;6.43;;
49450;SDS011;35336;48.400;10.886;2024-02-14T00:59:25;10.02;;;6.35;;
49450;SDS011;35336;48.400;10.886;2024-02-14T00:59:42;7.93;;;5.50;;
49450;SDS011;35336;48.400;10.886;2024-02-14T00:59:58;8.32;;;5.65;;
49450;SDS011;35336;48.400;10.886;2024-02-14T01:00:13;10.33;;;6.10;;
49450;SDS011;35336;48.400;10.886;2024-02-14T01:00:28;11.73;;;6.13;;
49450;SDS011;35336;48.400;10.886;2024-02-14T01:00:44;11.23;;;5.97;;
49450;SDS011;35336;48.400;10.886;2024-02-14T01:00:59;9.90;;;5.90;;
49450;SDS011;35336;48.400;10.886;2024-02-14T01:01:14;9.00;;;5.90;;
49450;SDS011;35336;48.400;10.886;2024-02-14T01:01:29;8.80;;;5.63;;
49450;SDS011;35336;48.400;10.886;2024-02-14T01:01:45;9.73;;;5.73;;
49450;SDS011;35336;48.400;10.886;2024-02-14T01:02:02;10.45;;;6.13;;
49450;SDS011;35336;48.400;10.886;2024-02-14T01:02:18;8.73;;;5.82;;
49450;SDS011;35336;48.400;10.886;2024-02-14T01:02:33;8.00;;;5.80;;
49450;SDS011;35336;48.400;10.886;2024-02-14T01:02:48;8.57;;;6.10;;
49450;SDS011;35336;48.400;10.886;2024-02-14T01:03:04;9.37;;;6.00;;
49450;SDS011;35336;48.400;10.886;2024-02-14T01:03:21;9.85;;;6.03;;
49450;SDS011;35336;48.400;10.886;2024-02-14T01:03:36;10.47;;;6.07;;
49450;SDS011;35336;48.400;10.886;2024-02-14T01:03:51;10.47;;;6.13;;
49450;SDS011;35336;48.400;10.886;2024-02-14T01:04:06;11.43;;;6.43;;
49450;SDS011;35336;48.400;10.886;2024-02-14T01:04:22;11.70;;;6.47;;
49450;SDS011;35336;48.400;10.886;2024-02-14T01:04:37;10.88;;;6.05;;
49450;SDS011;35336;48.400;10.886;2024-02-14T01:04:52;9.80;;;5.87;;
49450;SDS011;35336;48.400;10.886;2024-02-14T01:05:08;9.83;;;5.90;;
49450;SDS011;35336;48.400;10.886;2024-02-14T01:05:23;9.50;;;5.93;;
49450;SDS011;35336;48.400;10.886;2024-02-14T01:05:39;8.38;;;5.60;;
49450;SDS011;35336;48.400;10.886;2024-02-14T01:05:57;10.00;;;5.83;;
49450;SDS011;35336;48.400;10.886;2024-02-14T01:06:12;10.18;;;6.30;;
49450;SDS011;35336;48.400;10.886;2024-02-14T01:06:29;10.77;;;6.30;;
49450;SDS011;35336;48.400;10.886;2024-02-14T01:06:45;9.73;;;6.03;;
49450;SDS011;35336;48.400;10.886;2024-02-14T01:07:02;10.23;;;6.20;;
49450;SDS011;35336;48.400;10.886;2024-02-14T01:07:18;11.50;;;6.20;;
49450;SDS011;35336;48.400;10.886;2024-02-14T01:07:33;9.03;;;5.93;;
49450;SDS011;35336;48.400;10.886;2024-02-14T01:07:51;9.63;;;6.07;;
49450;SDS011;35336;48.400;10.886;2024-02-14T01:08:06;10.25;;;6.40;;
49450;SDS011;35336;48.400;10.886;2024-02-14T01:08:21;9.70;;;6.20;;
49450;SDS011;35336;48.400;10.886;2024-02-14T01:08:37;10.55;;;6.57;;
49450;SDS011;35336;48.400;10.886;2024-02-14T01:08:54;9.98;;;6.85;;
49450;SDS011;35336;48.400;10.886;2024-02-14T01:09:09;9.47;;;6.40;;
49450;SDS011;35336;48.400;10.886;2024-02-14T01:09:27;10.02;;;6.13;;
49450;SDS011;35336;48.400;10.886;2024-02-14T01:09:42;9.47;;;5.90;;
49450;SDS011;35336;48.400;10.886;2024-02-14T01:09:58;9.47;;;6.07;;
49450;SDS011;35336;48.400;10.886;2024-02-14T01:10:15;9.80;;;6.30;;
49450;SDS011;35336;48.400;10.886;2024-02-14T01:10:30;9.82;;;6.60;;
49450;SDS011;35336;48.400;10.886;2024-02-14T01:10:45;12.20;;;6.90;;
49450;SDS011;35336;48.400;10.886;2024-02-14T01:11:01;12.47;;;6.90;;
49450;SDS011;35336;48.400;10.886;2024-02-14T01:11:16;10.50;;;6.93;;
49450;SDS011;35336;48.400;10.886;2024-02-14T01:11:31;12.15;;;7.10;;
49450;SDS011;35336;48.400;10.886;2024-02-14T01:11:47;12.57;;;7.00;;
49450;SDS011;35336;48.400;10.886;2024-02-14T01:12:02;11.13;;;6.87;;
49450;SDS011;35336;48.400;10.886;2024-02-14T01:12:17;11.70;;;6.75;;
49450;SDS011;35336;48.400;10.886;2024-02-14T01:12:33;11.97;;;6.80;;
49450;SDS011;35336;48.400;10.886;2024-02-14T01:12:48;10.07;;;6.73;;
49450;SDS011;35336;48.400;10.886;2024-02-14T01:13:03;9.97;;;6.70;;
49450;SDS011;35336;48.400;10.886;2024-02-14T01:13:19;10.95;;;6.70;;
49450;SDS011;35336;48.400;10.886;2024-02-14T01:13:34;11.97;;;6.90;;
49450;SDS011;35336;48.400;10.886;2024-02-14T01:13:51;12.73;;;7.00;;
49450;SDS011;35336;48.400;10.886;2024-02-14T01:14:07;10.93;;;6.80;;
49450;SDS011;35336;48.400;10.886;2024-02-14T01:14:22;10.00;;;6.90;;
49450;SDS011;35336;48.400;10.886;2024-02-14T01:14:37;9.90;;;6.97;;
49450;SDS011;35336;48.400;10.886;2024-02-14T01:14:53;11.47;;;7.40;;
49450;SDS011;35336;48.400;10.886;2024-02-14T01:15:08;12.55;;;7.40;;
49450;SDS011;35336;48.400;10.886;2024-02-14T01:15:24;11.10;;;6.90;;
49450;SDS011;35336;48.400;10.886;2024-02-14T01:15:39;10.23;;;6.85;;
49450;SDS011;35336;48.400;10.886;2024-02-14T01:15:54;11.37;;;7.27;;
49450;SDS011;35336;48.400;10.886;2024-02-14T01:16:10;12.43;;;7.40;;
49450;SDS011;35336;48.400;10.886;2024-02-14T01:16:25;11.50;;;7.23;;
49450;SDS011;35336;48.400;10.886;2024-02-14T01:16:46;11.40;;;7.28;;
49450;SDS011;35336;48.400;10.886;2024-02-14T01:17:01;11.02;;;7.20;;
49450;SDS011;35336;48.400;10.886;2024-02-14T01:17:17;9.83;;;7.13;;
49450;SDS011;35336;48.400;10.886;2024-02-14T01:17:32;10.23;;;7.00;;
49450;SDS011;35336;48.400;10.886;2024-02-14T01:17:47;9.53;;;6.53;;
49450;SDS011;35336;48.400;10.886;2024-02-14T01:18:03;9.77;;;7.00;;
49450;SDS011;35336;48.400;10.886;2024-02-14T01:18:18;11.13;;;7.23;;
49450;SDS011;35336;48.400;10.886;2024-02-14T01:18:33;11.82;;;7.40;;
49450;SDS011;35336;48.400;10.886;2024-02-14T01:18:49;11.50;;;7.70;;
49450;SDS011;35336;48.400;10.886;2024-02-14T01:19:04;14.57;;;7.83;;
49450;SDS011;35336;48.400;10.886;2024-02-14T01:19:19;14.13;;;7.87;;
49450;SDS011;35336;48.400;10.886;2024-02-14T01:19:34;10.73;;;7.40;;
49450;SDS011;35336;48.400;10.886;2024-02-14T01:19:50;12.35;;;7.57;;
49450;SDS011;35336;48.400;10.886;2024-02-14T01:20:06;11.82;;;7.68;;
49450;SDS011;35336;48.400;10.886;2024-02-14T01:20:22;9.48;;;7.07;;
49450;SDS011;35336;48.400;10.886;2024-02-14T01:20:38;10.10;;;7.22;;
49450;SDS011;35336;48.400;10.886;2024-02-14T01:20:53;10.33;;;7.47;;
49450;SDS011;35336;48.400;10.886;2024-02-14T01:21:08;11.37;;;7.83;;
49450;SDS011;35336;48.400;10.886;2024-02-14T01:21:24;12.80;;;7.97;;
49450;SDS011;35336;48.400;10.886;2024-02-14T01:21:39;12.33;;;7.57;;
49450;SDS011;35336;48.400;10.886;2024-02-14T01:21:55;12.40;;;7.60;;
49450;SDS011;35336;48.400;10.886;2024-02-14T01:22:10;11.77;;;7.40;;
49450;SDS011;35336;48.400;10.886;2024-02-14T01:22:25;10.97;;;7.07;;
49450;SDS011;35336;48.400;10.886;2024-02-14T01:22:41;11.97;;;7.47;;
49450;SDS011;35336;48.400;10.886;2024-02-14T01:22:56;12.00;;;7.73;;
49450;SDS011;35336;48.400;10.886;2024-02-14T01:23:11;11.63;;;7.40;;
49450;SDS011;35336;48.400;10.886;2024-02-14T01:23:26;11.88;;;7.10;;
49450;SDS011;35336;48.400;10.886;2024-02-14T01:23:42;11.40;;;7.03;;
49450;SDS011;35336;48.400;10.886;2024-02-14T01:23:57;11.77;;;7.43;;
49450;SDS011;35336;48.400;10.886;2024-02-14T01:24:15;12.63;;;7.77;;
49450;SDS011;35336;48.400;10.886;2024-02-14T01:24:30;11.00;;;7.43;;
49450;SDS011;35336;48.400;10.886;2024-02-14T01:24:45;11.47;;;7.07;;
49450;SDS011;35336;48.400;10.886;2024-02-14T01:25:01;11.85;;;7.20;;
49450;SDS011;35336;48.400;10.886;2024-02-14T01:25:16;11.00;;;7.10;;
49450;SDS011;35336;48.400;10.886;2024-02-14T01:25:31;10.67;;;6.67;;
49450;SDS011;35336;48.400;10.886;2024-02-14T01:25:47;9.67;;;6.57;;
49450;SDS011;35336;48.400;10.886;2024-02-14T01:26:02;9.48;;;6.72;;
49450;SDS011;35336;48.400;10.886;2024-02-14T01:26:17;9.90;;;6.50;;
49450;SDS011;35336;48.400;10.886;2024-02-14T01:26:32;9.33;;;6.23;;
49450;SDS011;35336;48.400;10.886;2024-02-14T01:26:48;8.70;;;6.63;;
49450;SDS011;35336;48.400;10.886;2024-02-14T01:27:03;9.07;;;6.90;;
49450;SDS011;35336;48.400;10.886;2024-02-14T01:27:19;9.27;;;6.67;;
49450;SDS011;35336;48.400;10.886;2024-02-14T01:27:34;9.67;;;6.47;;
49450;SDS011;35336;48.400;10.886;2024-02-14T01:27:49;10.52;;;6.63;;
49450;SDS011;35336;48.400;10.886;2024-02-14T01:28:04;11.20;;;6.70;;
49450;SDS011;35336;48.400;10.886;2024-02-14T01:28:20;12.07;;;6.57;;
49450;SDS011;35336;48.400;10.886;2024-02-14T01:28:35;10.23;;;6.60;;
49450;SDS011;35336;48.400;10.886;2024-02-14T01:28:50;8.87;;;6.27;;
49450;SDS011;35336;48.400;10.886;2024-02-14T01:29:06;8.50;;;5.90;;
49450;SDS011;35336;48.400;10.886;2024-02-14T01:29:23;9.33;;;5.97;;
49450;SDS011;35336;48.400;10.886;2024-02-14T01:29:39;11.20;;;6.10;;
49450;SDS011;35336;48.400;10.886;2024-02-14T01:29:54;11.63;;;6.23;;
49450;SDS011;35336;48.400;10.886;2024-02-14T01:30:10;9.50;;;5.90;;
49450;SDS011;35336;48.400;10.886;2024-02-14T01:30:25;8.70;;;5.72;;
49450;SDS011;35336;48.400;10.886;2024-02-14T01:30:40;8.17;;;5.57;;
49450;SDS011;35336;48.400;10.886;2024-02-14T01:30:56;8.65;;;5.75;;
49450;SDS011;35336;48.400;10.886;2024-02-14T01:31:11;9.00;;;5.93;;
49450;SDS011;35336;48.400;10.886;2024-02-14T01:31:26;8.63;;;5.93;;
49450;SDS011;35336;48.400;10.886;2024-02-14T01:31:42;9.02;;;5.95;;
49450;SDS011;35336;48.400;10.886;2024-02-14T01:31:57;9.70;;;6.13;;